General Manuel Marquez De Leon International Airport
MMLP : now visible

Airfield :











YOU CAN JOIN US ON...

 
LOGIN :

Register | Disclaimer

   EN    FR    IT 

 









Legend :    VFR   Marginal VFR   IFR   Intensive IFR   Very Intensive IFR
Visi :
Ceiling :
>= 8 km
>= 3000ft
5 to 8 km
1000 to 3000 ft
1500m to 5 km
500 to 1000 ft
800 to 1500m
200 to 500 ft
< 800m
< 200 ft
Symbols :   Thunderstorms  Fog  Heavy snow  Heavy precipitations  Wind > 20 kt






- Airport Elevation : 69 ft
- IATA code : LAP


MMLP - General Manuel Marquez De Leon International

CURRENT METAR :
  • 030040Z 34003KT 10SM SCT200 28/M02 A2986 RMK 8/008 ISOL AC

EXPIRED METARs :
  • 022242Z 35009KT 10SM BKN200 29/M05 A2986 RMK 8/008

TAF TAF MMLP
Valid from the 02 at 18:00 until the 03 at 18:00 UTC


021644Z 0218/0318 20012KT P6SM BKN230
BECMG 0301/0302 00000KT
FM031500 23010KT P6SM SKC



MET'MAP, your aeronautical weather chart ! - Copyright ORBIFLY December 2007 - Disclaimer

ORBIFLY MET'MAP TEAM :

Programming & Development : Alexandra Zaïnal
Concept & original design : Baudouin d'Aumeries
Assistance for programming : Marc-Olivier Méhu
Technical & hardware support : Manuel Goepfert

Contact : metmap@orbifly.com




SOURCES & CREDITS :

   NOAA       Earth
Advisory